This is the latest recevied weather packets stored in our database for station/object AG1T-20. If no packets are shown the sender has not sent any weather packets the latest 10 day(s).
| Time | Temp. | Humidity | Pressure | Rain* | Wind** | Luminosity | Snow |
|---|---|---|---|---|---|---|---|
| 1777641005 | 2.78° C | 67% | 1022.8 hPa | 0 mm | - | 25 W/m² | - |
| 1777640405 | 2.78° C | 68% | 1022.8 hPa | 0 mm | - | 21 W/m² | - |
| 1777639805 | 2.22° C | 70% | 1022.4 hPa | 0 mm | - | 17 W/m² | - |
| 1777639205 | 2.78° C | 67% | 1022.4 hPa | 0 mm | - | 13 W/m² | - |
| 1777638605 | 3.89° C | 62% | 1022.4 hPa | 0 mm | - | 8 W/m² | - |
| 1777638005 | 3.33° C | 66% | 1022.4 hPa | 0 mm | - | 4 W/m² | - |
| 1777637405 | 3.33° C | 64% | 1022.4 hPa | 0 mm | - | 1 W/m² | - |
| 1777636805 | 3.89° C | 61% | 1022.4 hPa | 0 mm | - | 0 W/m² | - |
| 1777636205 | 4.44° C | 58% | 1022.4 hPa | 0 mm | - | 0 W/m² | - |
| 1777635605 | 3.33° C | 66% | 1022.4 hPa | 0 mm | - | 0 W/m² | - |
| 1777635005 | 3.33° C | 66% | 1022.4 hPa | 0 mm | - | 0 W/m² | - |
| 1777634405 | 3.33° C | 67% | 1022.4 hPa | 0 mm | - | 0 W/m² | - |
| 1777633805 | 3.89° C | 65% | 1022.4 hPa | 0 mm | - | 0 W/m² | - |
| 1777633205 | 3.89° C | 67% | 1022.4 hPa | 0 mm | - | 0 W/m² | - |
| 1777632605 | 3.89° C | 65% | 1022.2 hPa | 0 mm | - | 0 W/m² | - |
| 1777632005 | 3.33° C | 65% | 1022.2 hPa | 0 mm | - | 0 W/m² | - |
| 1777631405 | 4.44° C | 62% | 1022.2 hPa | 0 mm | - | 0 W/m² | - |
| 1777630805 | 4.44° C | 65% | 1022.2 hPa | 0 mm | - | 0 W/m² | - |
| 1777630205 | 3.89° C | 69% | 1022.2 hPa | 0 mm | - | 0 W/m² | - |
| 1777629605 | 4.44° C | 66% | 1022.2 hPa | 0 mm | - | 0 W/m² | - |
| 1777629004 | 5° C | 64% | 1022.2 hPa | 0 mm | - | 0 W/m² | - |
| 1777628405 | 5.56° C | 62% | 1022.2 hPa | 0 mm | - | 0 W/m² | - |
| 1777627805 | 5° C | 63% | 1022.2 hPa | 0 mm | - | 0 W/m² | - |
| 1777627205 | 6.11° C | 59% | 1022.2 hPa | 0 mm | - | 0 W/m² | - |
| 1777626605 | 5.56° C | 62% | 1022.2 hPa | 0 mm | - | 0 W/m² | - |
* Rain latest hour (hover to see other rain measurements)
** Current wind speed in m/s (hover to see current wind gust speed)